sensor_id;sensor_type;location;lat;lon;timestamp;P1;durP1;ratioP1;P2;durP2;ratioP2
31798;SDS011;18374;51.136;3.502;2024-01-25T00:00:59;24.85;;;3.30;;
31798;SDS011;18374;51.136;3.502;2024-01-25T00:03:31;44.92;;;4.50;;
31798;SDS011;18374;51.136;3.502;2024-01-25T00:06:04;23.33;;;3.55;;
31798;SDS011;18374;51.136;3.502;2024-01-25T00:08:35;16.88;;;3.25;;
31798;SDS011;18374;51.136;3.502;2024-01-25T00:11:08;8.25;;;2.40;;
31798;SDS011;18374;51.136;3.502;2024-01-25T00:13:38;17.25;;;2.78;;
31798;SDS011;18374;51.136;3.502;2024-01-25T00:16:09;8.90;;;2.10;;
31798;SDS011;18374;51.136;3.502;2024-01-25T00:18:42;16.42;;;2.88;;
31798;SDS011;18374;51.136;3.502;2024-01-25T00:21:14;10.13;;;1.77;;
31798;SDS011;18374;51.136;3.502;2024-01-25T00:23:49;23.45;;;3.65;;
31798;SDS011;18374;51.136;3.502;2024-01-25T00:26:20;24.15;;;3.63;;
31798;SDS011;18374;51.136;3.502;2024-01-25T00:28:49;7.35;;;2.03;;
31798;SDS011;18374;51.136;3.502;2024-01-25T00:31:20;13.13;;;2.85;;
31798;SDS011;18374;51.136;3.502;2024-01-25T00:33:50;11.30;;;3.30;;
31798;SDS011;18374;51.136;3.502;2024-01-25T00:36:21;13.95;;;2.58;;
31798;SDS011;18374;51.136;3.502;2024-01-25T00:38:53;11.02;;;3.03;;
31798;SDS011;18374;51.136;3.502;2024-01-25T00:41:24;28.77;;;4.18;;
31798;SDS011;18374;51.136;3.502;2024-01-25T00:43:56;15.13;;;2.45;;
31798;SDS011;18374;51.136;3.502;2024-01-25T00:46:25;18.88;;;3.97;;
31798;SDS011;18374;51.136;3.502;2024-01-25T00:48:59;11.13;;;1.92;;
31798;SDS011;18374;51.136;3.502;2024-01-25T00:51:33;7.72;;;2.10;;
31798;SDS011;18374;51.136;3.502;2024-01-25T00:54:05;15.18;;;2.97;;
31798;SDS011;18374;51.136;3.502;2024-01-25T00:56:36;12.57;;;3.10;;
31798;SDS011;18374;51.136;3.502;2024-01-25T00:59:06;20.25;;;3.70;;
31798;SDS011;18374;51.136;3.502;2024-01-25T01:01:41;16.58;;;3.60;;
31798;SDS011;18374;51.136;3.502;2024-01-25T01:04:14;13.15;;;4.03;;
31798;SDS011;18374;51.136;3.502;2024-01-25T01:06:46;21.23;;;2.13;;
31798;SDS011;18374;51.136;3.502;2024-01-25T01:09:17;12.07;;;2.50;;
31798;SDS011;18374;51.136;3.502;2024-01-25T01:11:48;7.88;;;1.83;;
31798;SDS011;18374;51.136;3.502;2024-01-25T01:14:20;24.80;;;2.92;;
31798;SDS011;18374;51.136;3.502;2024-01-25T01:16:51;23.95;;;1.80;;
31798;SDS011;18374;51.136;3.502;2024-01-25T01:19:22;15.55;;;1.75;;
31798;SDS011;18374;51.136;3.502;2024-01-25T01:21:52;10.80;;;2.35;;
31798;SDS011;18374;51.136;3.502;2024-01-25T01:24:24;13.15;;;2.42;;
31798;SDS011;18374;51.136;3.502;2024-01-25T01:26:55;11.52;;;2.35;;
31798;SDS011;18374;51.136;3.502;2024-01-25T01:29:26;11.93;;;2.15;;
31798;SDS011;18374;51.136;3.502;2024-01-25T01:32:00;15.75;;;1.85;;
31798;SDS011;18374;51.136;3.502;2024-01-25T01:34:31;13.98;;;2.35;;
31798;SDS011;18374;51.136;3.502;2024-01-25T01:37:03;9.15;;;1.73;;
31798;SDS011;18374;51.136;3.502;2024-01-25T01:39:34;21.48;;;2.95;;
31798;SDS011;18374;51.136;3.502;2024-01-25T01:42:05;8.88;;;2.22;;
31798;SDS011;18374;51.136;3.502;2024-01-25T01:44:37;9.73;;;1.90;;
31798;SDS011;18374;51.136;3.502;2024-01-25T01:47:10;12.46;;;2.64;;
31798;SDS011;18374;51.136;3.502;2024-01-25T01:49:43;15.82;;;2.75;;
31798;SDS011;18374;51.136;3.502;2024-01-25T01:52:16;8.52;;;1.83;;
31798;SDS011;18374;51.136;3.502;2024-01-25T01:54:47;7.03;;;2.50;;
31798;SDS011;18374;51.136;3.502;2024-01-25T01:57:19;25.52;;;3.33;;
31798;SDS011;18374;51.136;3.502;2024-01-25T01:59:50;9.43;;;1.85;;
31798;SDS011;18374;51.136;3.502;2024-01-25T02:02:22;6.93;;;2.05;;
31798;SDS011;18374;51.136;3.502;2024-01-25T02:04:54;14.70;;;3.03;;
31798;SDS011;18374;51.136;3.502;2024-01-25T02:07:26;12.23;;;2.45;;
31798;SDS011;18374;51.136;3.502;2024-01-25T02:09:58;8.57;;;2.33;;
31798;SDS011;18374;51.136;3.502;2024-01-25T02:12:29;7.40;;;2.80;;
31798;SDS011;18374;51.136;3.502;2024-01-25T02:15:00;9.40;;;2.08;;
31798;SDS011;18374;51.136;3.502;2024-01-25T02:17:33;20.70;;;2.67;;
31798;SDS011;18374;51.136;3.502;2024-01-25T02:20:04;6.38;;;2.92;;
31798;SDS011;18374;51.136;3.502;2024-01-25T02:22:36;18.95;;;1.85;;
31798;SDS011;18374;51.136;3.502;2024-01-25T02:25:08;6.07;;;1.73;;
31798;SDS011;18374;51.136;3.502;2024-01-25T02:27:40;8.88;;;2.60;;
31798;SDS011;18374;51.136;3.502;2024-01-25T02:30:11;7.93;;;1.67;;
31798;SDS011;18374;51.136;3.502;2024-01-25T02:32:43;2.65;;;1.30;;
31798;SDS011;18374;51.136;3.502;2024-01-25T02:35:15;13.25;;;3.80;;
31798;SDS011;18374;51.136;3.502;2024-01-25T02:37:45;4.72;;;2.45;;
31798;SDS011;18374;51.136;3.502;2024-01-25T02:40:17;9.70;;;3.08;;
31798;SDS011;18374;51.136;3.502;2024-01-25T02:42:49;8.40;;;2.30;;
31798;SDS011;18374;51.136;3.502;2024-01-25T02:45:20;14.63;;;3.00;;
31798;SDS011;18374;51.136;3.502;2024-01-25T02:47:54;9.10;;;2.67;;
31798;SDS011;18374;51.136;3.502;2024-01-25T02:50:27;12.88;;;1.95;;
31798;SDS011;18374;51.136;3.502;2024-01-25T02:52:59;7.10;;;1.25;;
31798;SDS011;18374;51.136;3.502;2024-01-25T02:55:30;14.80;;;2.47;;
31798;SDS011;18374;51.136;3.502;2024-01-25T02:58:01;9.55;;;1.60;;
31798;SDS011;18374;51.136;3.502;2024-01-25T03:00:33;3.42;;;2.05;;
31798;SDS011;18374;51.136;3.502;2024-01-25T03:03:05;12.07;;;2.45;;
31798;SDS011;18374;51.136;3.502;2024-01-25T03:05:36;11.88;;;2.65;;
31798;SDS011;18374;51.136;3.502;2024-01-25T03:08:08;6.00;;;2.33;;
31798;SDS011;18374;51.136;3.502;2024-01-25T03:10:40;7.63;;;2.08;;
31798;SDS011;18374;51.136;3.502;2024-01-25T03:13:11;9.60;;;1.75;;
31798;SDS011;18374;51.136;3.502;2024-01-25T03:15:44;12.70;;;2.90;;
31798;SDS011;18374;51.136;3.502;2024-01-25T03:18:16;21.77;;;2.55;;
31798;SDS011;18374;51.136;3.502;2024-01-25T03:20:47;10.82;;;3.63;;
31798;SDS011;18374;51.136;3.502;2024-01-25T03:23:20;1.80;;;1.70;;
31798;SDS011;18374;51.136;3.502;2024-01-25T03:25:52;6.45;;;2.42;;
31798;SDS011;18374;51.136;3.502;2024-01-25T03:28:27;7.57;;;2.07;;
31798;SDS011;18374;51.136;3.502;2024-01-25T03:30:58;10.27;;;1.52;;
31798;SDS011;18374;51.136;3.502;2024-01-25T03:33:32;6.75;;;1.40;;
31798;SDS011;18374;51.136;3.502;2024-01-25T03:36:05;9.25;;;2.03;;
31798;SDS011;18374;51.136;3.502;2024-01-25T03:38:37;5.10;;;1.63;;
31798;SDS011;18374;51.136;3.502;2024-01-25T03:41:08;4.93;;;1.65;;
31798;SDS011;18374;51.136;3.502;2024-01-25T03:43:40;19.20;;;2.20;;
31798;SDS011;18374;51.136;3.502;2024-01-25T03:46:12;2.15;;;1.40;;
31798;SDS011;18374;51.136;3.502;2024-01-25T03:48:44;7.35;;;1.98;;
31798;SDS011;18374;51.136;3.502;2024-01-25T03:51:15;9.18;;;1.33;;
31798;SDS011;18374;51.136;3.502;2024-01-25T03:53:49;7.80;;;2.05;;
31798;SDS011;18374;51.136;3.502;2024-01-25T03:56:22;4.88;;;2.47;;
31798;SDS011;18374;51.136;3.502;2024-01-25T03:58:56;5.22;;;2.75;;
31798;SDS011;18374;51.136;3.502;2024-01-25T04:01:27;29.77;;;3.28;;
31798;SDS011;18374;51.136;3.502;2024-01-25T04:04:00;10.38;;;1.75;;
31798;SDS011;18374;51.136;3.502;2024-01-25T04:06:35;3.85;;;1.70;;
31798;SDS011;18374;51.136;3.502;2024-01-25T04:09:12;6.70;;;1.73;;
31798;SDS011;18374;51.136;3.502;2024-01-25T04:11:47;7.18;;;2.17;;
31798;SDS011;18374;51.136;3.502;2024-01-25T04:14:19;6.82;;;2.63;;
31798;SDS011;18374;51.136;3.502;2024-01-25T04:16:53;7.55;;;1.73;;
31798;SDS011;18374;51.136;3.502;2024-01-25T04:19:25;2.63;;;1.50;;
31798;SDS011;18374;51.136;3.502;2024-01-25T04:21:57;2.60;;;1.35;;
31798;SDS011;18374;51.136;3.502;2024-01-25T04:24:27;13.68;;;2.30;;
31798;SDS011;18374;51.136;3.502;2024-01-25T04:26:59;4.75;;;1.48;;
31798;SDS011;18374;51.136;3.502;2024-01-25T04:29:31;11.38;;;2.55;;
31798;SDS011;18374;51.136;3.502;2024-01-25T04:32:03;14.20;;;3.58;;
31798;SDS011;18374;51.136;3.502;2024-01-25T04:34:35;10.82;;;1.38;;
31798;SDS011;18374;51.136;3.502;2024-01-25T04:37:08;9.60;;;2.03;;
31798;SDS011;18374;51.136;3.502;2024-01-25T04:39:40;10.38;;;1.55;;
31798;SDS011;18374;51.136;3.502;2024-01-25T04:42:12;11.70;;;1.52;;
31798;SDS011;18374;51.136;3.502;2024-01-25T04:44:44;6.47;;;1.10;;
31798;SDS011;18374;51.136;3.502;2024-01-25T04:47:16;3.42;;;1.58;;
31798;SDS011;18374;51.136;3.502;2024-01-25T04:49:48;8.88;;;1.58;;
31798;SDS011;18374;51.136;3.502;2024-01-25T04:52:20;10.15;;;2.15;;
31798;SDS011;18374;51.136;3.502;2024-01-25T04:54:51;3.17;;;1.23;;
31798;SDS011;18374;51.136;3.502;2024-01-25T04:57:23;11.90;;;2.42;;
31798;SDS011;18374;51.136;3.502;2024-01-25T04:59:55;9.43;;;1.25;;
31798;SDS011;18374;51.136;3.502;2024-01-25T05:02:26;8.05;;;1.52;;
31798;SDS011;18374;51.136;3.502;2024-01-25T05:04:57;5.88;;;2.00;;
31798;SDS011;18374;51.136;3.502;2024-01-25T05:07:31;21.05;;;2.03;;
31798;SDS011;18374;51.136;3.502;2024-01-25T05:10:06;5.30;;;2.80;;
31798;SDS011;18374;51.136;3.502;2024-01-25T05:12:41;11.57;;;2.92;;
31798;SDS011;18374;51.136;3.502;2024-01-25T05:15:13;9.85;;;1.95;;
31798;SDS011;18374;51.136;3.502;2024-01-25T05:17:44;1.40;;;1.17;;
31798;SDS011;18374;51.136;3.502;2024-01-25T05:20:16;10.43;;;1.63;;
31798;SDS011;18374;51.136;3.502;2024-01-25T05:22:48;7.97;;;1.75;;
31798;SDS011;18374;51.136;3.502;2024-01-25T05:25:27;5.20;;;1.52;;
31798;SDS011;18374;51.136;3.502;2024-01-25T05:27:59;7.75;;;2.20;;
31798;SDS011;18374;51.136;3.502;2024-01-25T05:30:38;8.68;;;1.48;;
31798;SDS011;18374;51.136;3.502;2024-01-25T05:33:09;6.13;;;1.85;;
31798;SDS011;18374;51.136;3.502;2024-01-25T05:35:41;3.25;;;1.75;;
31798;SDS011;18374;51.136;3.502;2024-01-25T05:38:16;9.95;;;2.42;;
31798;SDS011;18374;51.136;3.502;2024-01-25T05:40:47;10.13;;;3.35;;
31798;SDS011;18374;51.136;3.502;2024-01-25T05:43:19;13.80;;;2.15;;
31798;SDS011;18374;51.136;3.502;2024-01-25T05:45:51;7.85;;;2.92;;
31798;SDS011;18374;51.136;3.502;2024-01-25T05:48:22;8.05;;;2.28;;
31798;SDS011;18374;51.136;3.502;2024-01-25T05:50:54;7.30;;;1.70;;
31798;SDS011;18374;51.136;3.502;2024-01-25T05:53:24;6.20;;;1.77;;
31798;SDS011;18374;51.136;3.502;2024-01-25T05:55:56;5.10;;;1.98;;
31798;SDS011;18374;51.136;3.502;2024-01-25T05:58:28;3.63;;;2.47;;
31798;SDS011;18374;51.136;3.502;2024-01-25T06:00:59;7.60;;;2.17;;
31798;SDS011;18374;51.136;3.502;2024-01-25T06:03:32;6.32;;;1.38;;
31798;SDS011;18374;51.136;3.502;2024-01-25T06:06:03;13.68;;;2.47;;
31798;SDS011;18374;51.136;3.502;2024-01-25T06:08:37;12.70;;;2.20;;
31798;SDS011;18374;51.136;3.502;2024-01-25T06:11:09;5.05;;;1.73;;
31798;SDS011;18374;51.136;3.502;2024-01-25T06:13:40;17.17;;;2.83;;
31798;SDS011;18374;51.136;3.502;2024-01-25T06:16:11;8.88;;;1.77;;
31798;SDS011;18374;51.136;3.502;2024-01-25T06:18:39;5.63;;;2.25;;
31798;SDS011;18374;51.136;3.502;2024-01-25T06:21:07;14.40;;;2.55;;
31798;SDS011;18374;51.136;3.502;2024-01-25T06:23:35;10.30;;;2.63;;
31798;SDS011;18374;51.136;3.502;2024-01-25T06:26:03;5.55;;;2.58;;
31798;SDS011;18374;51.136;3.502;2024-01-25T06:28:31;5.18;;;1.50;;
31798;SDS011;18374;51.136;3.502;2024-01-25T06:31:00;5.93;;;1.83;;
31798;SDS011;18374;51.136;3.502;2024-01-25T06:33:29;5.15;;;2.15;;
31798;SDS011;18374;51.136;3.502;2024-01-25T06:35:57;3.85;;;1.05;;
31798;SDS011;18374;51.136;3.502;2024-01-25T06:38:25;4.38;;;1.67;;
31798;SDS011;18374;51.136;3.502;2024-01-25T06:40:53;4.15;;;1.33;;
31798;SDS011;18374;51.136;3.502;2024-01-25T06:43:21;8.93;;;2.35;;
31798;SDS011;18374;51.136;3.502;2024-01-25T06:45:49;8.82;;;1.38;;
31798;SDS011;18374;51.136;3.502;2024-01-25T06:48:18;4.63;;;1.17;;
31798;SDS011;18374;51.136;3.502;2024-01-25T06:50:47;3.00;;;1.42;;
31798;SDS011;18374;51.136;3.502;2024-01-25T06:53:17;7.95;;;2.03;;
31798;SDS011;18374;51.136;3.502;2024-01-25T06:55:45;14.15;;;2.40;;
31798;SDS011;18374;51.136;3.502;2024-01-25T06:58:13;9.88;;;2.15;;
31798;SDS011;18374;51.136;3.502;2024-01-25T07:00:42;11.65;;;2.47;;
31798;SDS011;18374;51.136;3.502;2024-01-25T07:03:12;8.85;;;2.80;;
31798;SDS011;18374;51.136;3.502;2024-01-25T07:05:42;13.63;;;3.95;;
31798;SDS011;18374;51.136;3.502;2024-01-25T07:08:10;26.40;;;3.45;;
31798;SDS011;18374;51.136;3.502;2024-01-25T07:10:40;11.75;;;2.47;;
31798;SDS011;18374;51.136;3.502;2024-01-25T07:13:08;19.92;;;3.90;;
31798;SDS011;18374;51.136;3.502;2024-01-25T07:15:37;24.15;;;3.08;;
31798;SDS011;18374;51.136;3.502;2024-01-25T07:18:05;18.02;;;3.50;;
31798;SDS011;18374;51.136;3.502;2024-01-25T07:20:34;9.40;;;4.28;;
31798;SDS011;18374;51.136;3.502;2024-01-25T07:23:02;33.15;;;3.17;;
31798;SDS011;18374;51.136;3.502;2024-01-25T07:25:30;4.30;;;3.05;;
31798;SDS011;18374;51.136;3.502;2024-01-25T07:27:58;20.83;;;3.05;;
31798;SDS011;18374;51.136;3.502;2024-01-25T07:30:26;27.88;;;3.08;;
31798;SDS011;18374;51.136;3.502;2024-01-25T07:32:54;15.35;;;2.33;;
31798;SDS011;18374;51.136;3.502;2024-01-25T07:35:22;7.15;;;2.35;;
31798;SDS011;18374;51.136;3.502;2024-01-25T07:37:51;5.15;;;3.13;;
31798;SDS011;18374;51.136;3.502;2024-01-25T07:40:19;36.00;;;3.95;;
31798;SDS011;18374;51.136;3.502;2024-01-25T07:42:47;3.78;;;2.65;;
31798;SDS011;18374;51.136;3.502;2024-01-25T07:45:15;9.73;;;3.95;;
31798;SDS011;18374;51.136;3.502;2024-01-25T07:47:43;8.75;;;3.17;;
31798;SDS011;18374;51.136;3.502;2024-01-25T07:50:13;5.57;;;3.20;;
31798;SDS011;18374;51.136;3.502;2024-01-25T07:52:41;6.05;;;3.00;;
31798;SDS011;18374;51.136;3.502;2024-01-25T07:55:09;7.93;;;3.75;;
31798;SDS011;18374;51.136;3.502;2024-01-25T07:57:37;20.42;;;3.90;;
31798;SDS011;18374;51.136;3.502;2024-01-25T08:00:07;3.60;;;3.25;;
31798;SDS011;18374;51.136;3.502;2024-01-25T08:02:36;15.40;;;3.33;;
31798;SDS011;18374;51.136;3.502;2024-01-25T08:05:07;5.97;;;3.53;;
31798;SDS011;18374;51.136;3.502;2024-01-25T08:07:35;28.23;;;4.85;;
31798;SDS011;18374;51.136;3.502;2024-01-25T08:10:04;6.05;;;2.92;;
31798;SDS011;18374;51.136;3.502;2024-01-25T08:12:33;25.13;;;4.13;;
31798;SDS011;18374;51.136;3.502;2024-01-25T08:15:01;31.73;;;4.65;;
31798;SDS011;18374;51.136;3.502;2024-01-25T08:17:29;7.43;;;3.63;;
31798;SDS011;18374;51.136;3.502;2024-01-25T08:19:58;30.27;;;3.95;;
31798;SDS011;18374;51.136;3.502;2024-01-25T08:22:27;19.17;;;4.28;;
31798;SDS011;18374;51.136;3.502;2024-01-25T08:24:55;40.33;;;4.70;;
31798;SDS011;18374;51.136;3.502;2024-01-25T08:27:23;6.10;;;3.25;;
31798;SDS011;18374;51.136;3.502;2024-01-25T08:29:51;9.15;;;3.60;;
31798;SDS011;18374;51.136;3.502;2024-01-25T08:32:19;22.27;;;4.22;;
31798;SDS011;18374;51.136;3.502;2024-01-25T08:34:47;17.63;;;3.85;;
31798;SDS011;18374;51.136;3.502;2024-01-25T08:37:15;31.35;;;4.80;;
31798;SDS011;18374;51.136;3.502;2024-01-25T08:39:43;24.67;;;3.28;;
31798;SDS011;18374;51.136;3.502;2024-01-25T08:42:12;10.27;;;3.80;;
31798;SDS011;18374;51.136;3.502;2024-01-25T08:44:40;25.80;;;3.70;;
31798;SDS011;18374;51.136;3.502;2024-01-25T08:47:17;13.63;;;3.13;;
31798;SDS011;18374;51.136;3.502;2024-01-25T08:49:45;18.90;;;4.43;;
31798;SDS011;18374;51.136;3.502;2024-01-25T08:52:13;21.40;;;4.32;;
31798;SDS011;18374;51.136;3.502;2024-01-25T08:54:42;9.43;;;3.35;;
31798;SDS011;18374;51.136;3.502;2024-01-25T08:57:10;76.68;;;5.00;;
31798;SDS011;18374;51.136;3.502;2024-01-25T08:59:38;17.10;;;4.13;;
31798;SDS011;18374;51.136;3.502;2024-01-25T09:02:06;5.68;;;3.10;;
31798;SDS011;18374;51.136;3.502;2024-01-25T09:04:34;30.33;;;3.95;;
31798;SDS011;18374;51.136;3.502;2024-01-25T09:07:03;25.35;;;3.05;;
31798;SDS011;18374;51.136;3.502;2024-01-25T09:09:32;54.60;;;4.32;;
31798;SDS011;18374;51.136;3.502;2024-01-25T09:12:01;13.68;;;3.90;;
31798;SDS011;18374;51.136;3.502;2024-01-25T09:14:29;14.77;;;3.45;;
31798;SDS011;18374;51.136;3.502;2024-01-25T09:16:59;13.38;;;4.60;;
31798;SDS011;18374;51.136;3.502;2024-01-25T09:19:27;19.77;;;4.05;;
31798;SDS011;18374;51.136;3.502;2024-01-25T09:21:55;27.98;;;4.95;;
31798;SDS011;18374;51.136;3.502;2024-01-25T09:24:26;40.63;;;4.75;;
31798;SDS011;18374;51.136;3.502;2024-01-25T09:26:54;6.55;;;3.25;;
31798;SDS011;18374;51.136;3.502;2024-01-25T09:29:22;11.60;;;4.70;;
31798;SDS011;18374;51.136;3.502;2024-01-25T09:31:50;17.02;;;4.07;;
31798;SDS011;18374;51.136;3.502;2024-01-25T09:34:20;7.97;;;3.47;;
31798;SDS011;18374;51.136;3.502;2024-01-25T09:36:48;6.68;;;4.05;;
31798;SDS011;18374;51.136;3.502;2024-01-25T09:39:16;11.55;;;4.63;;
31798;SDS011;18374;51.136;3.502;2024-01-25T09:41:45;12.65;;;4.55;;
31798;SDS011;18374;51.136;3.502;2024-01-25T09:44:13;20.70;;;4.75;;
31798;SDS011;18374;51.136;3.502;2024-01-25T09:46:41;9.57;;;3.72;;
31798;SDS011;18374;51.136;3.502;2024-01-25T09:49:10;9.10;;;4.82;;
31798;SDS011;18374;51.136;3.502;2024-01-25T09:51:42;6.15;;;3.50;;
31798;SDS011;18374;51.136;3.502;2024-01-25T09:54:11;8.90;;;4.07;;
31798;SDS011;18374;51.136;3.502;2024-01-25T09:56:41;16.30;;;4.82;;
31798;SDS011;18374;51.136;3.502;2024-01-25T09:59:09;9.88;;;4.68;;
31798;SDS011;18374;51.136;3.502;2024-01-25T10:01:38;10.88;;;4.85;;
31798;SDS011;18374;51.136;3.502;2024-01-25T10:04:06;11.07;;;4.75;;
31798;SDS011;18374;51.136;3.502;2024-01-25T10:06:35;11.88;;;4.45;;
31798;SDS011;18374;51.136;3.502;2024-01-25T10:09:04;12.15;;;4.03;;
31798;SDS011;18374;51.136;3.502;2024-01-25T10:11:34;12.40;;;5.55;;
31798;SDS011;18374;51.136;3.502;2024-01-25T10:14:08;9.30;;;4.03;;
31798;SDS011;18374;51.136;3.502;2024-01-25T10:16:36;19.38;;;4.88;;
31798;SDS011;18374;51.136;3.502;2024-01-25T10:19:07;12.95;;;5.20;;
31798;SDS011;18374;51.136;3.502;2024-01-25T10:21:37;24.63;;;5.63;;
31798;SDS011;18374;51.136;3.502;2024-01-25T10:24:09;22.02;;;5.72;;
31798;SDS011;18374;51.136;3.502;2024-01-25T10:26:38;13.52;;;5.13;;
31798;SDS011;18374;51.136;3.502;2024-01-25T10:29:07;14.05;;;4.43;;
31798;SDS011;18374;51.136;3.502;2024-01-25T10:31:40;15.18;;;5.95;;
31798;SDS011;18374;51.136;3.502;2024-01-25T10:34:09;16.38;;;6.38;;
31798;SDS011;18374;51.136;3.502;2024-01-25T10:36:40;15.23;;;4.15;;
31798;SDS011;18374;51.136;3.502;2024-01-25T10:39:09;18.73;;;6.35;;
31798;SDS011;18374;51.136;3.502;2024-01-25T10:41:37;12.75;;;5.40;;
31798;SDS011;18374;51.136;3.502;2024-01-25T10:44:05;15.43;;;5.60;;
31798;SDS011;18374;51.136;3.502;2024-01-25T10:46:34;9.75;;;4.80;;
31798;SDS011;18374;51.136;3.502;2024-01-25T10:49:02;14.38;;;3.90;;
31798;SDS011;18374;51.136;3.502;2024-01-25T10:51:31;9.27;;;3.53;;
31798;SDS011;18374;51.136;3.502;2024-01-25T10:53:59;15.35;;;5.55;;
31798;SDS011;18374;51.136;3.502;2024-01-25T10:56:28;11.15;;;4.75;;
31798;SDS011;18374;51.136;3.502;2024-01-25T10:58:55;7.95;;;3.55;;
31798;SDS011;18374;51.136;3.502;2024-01-25T11:01:23;12.35;;;4.00;;
31798;SDS011;18374;51.136;3.502;2024-01-25T11:03:53;8.82;;;4.18;;
31798;SDS011;18374;51.136;3.502;2024-01-25T11:06:21;22.52;;;6.00;;
31798;SDS011;18374;51.136;3.502;2024-01-25T11:08:50;12.50;;;3.97;;
31798;SDS011;18374;51.136;3.502;2024-01-25T11:11:18;11.50;;;4.97;;
31798;SDS011;18374;51.136;3.502;2024-01-25T11:13:46;11.27;;;4.07;;
31798;SDS011;18374;51.136;3.502;2024-01-25T11:16:18;10.13;;;3.28;;
31798;SDS011;18374;51.136;3.502;2024-01-25T11:18:56;10.73;;;3.42;;
31798;SDS011;18374;51.136;3.502;2024-01-25T11:21:44;11.30;;;3.75;;
31798;SDS011;18374;51.136;3.502;2024-01-25T11:24:17;10.80;;;4.45;;
31798;SDS011;18374;51.136;3.502;2024-01-25T11:26:48;9.82;;;4.05;;
31798;SDS011;18374;51.136;3.502;2024-01-25T11:29:17;9.20;;;3.28;;
31798;SDS011;18374;51.136;3.502;2024-01-25T11:31:48;11.52;;;3.22;;
31798;SDS011;18374;51.136;3.502;2024-01-25T11:34:17;16.85;;;4.55;;
31798;SDS011;18374;51.136;3.502;2024-01-25T11:36:45;5.18;;;2.75;;
31798;SDS011;18374;51.136;3.502;2024-01-25T11:39:14;8.18;;;4.93;;
31798;SDS011;18374;51.136;3.502;2024-01-25T11:41:46;7.90;;;3.05;;
31798;SDS011;18374;51.136;3.502;2024-01-25T11:44:14;14.63;;;3.13;;
31798;SDS011;18374;51.136;3.502;2024-01-25T11:46:42;9.55;;;3.67;;
31798;SDS011;18374;51.136;3.502;2024-01-25T11:49:11;12.18;;;4.13;;
31798;SDS011;18374;51.136;3.502;2024-01-25T11:51:39;18.30;;;2.97;;
31798;SDS011;18374;51.136;3.502;2024-01-25T11:54:07;9.40;;;3.28;;
31798;SDS011;18374;51.136;3.502;2024-01-25T11:56:37;3.75;;;2.47;;
31798;SDS011;18374;51.136;3.502;2024-01-25T11:59:08;10.07;;;3.80;;
31798;SDS011;18374;51.136;3.502;2024-01-25T12:01:37;8.60;;;2.67;;
31798;SDS011;18374;51.136;3.502;2024-01-25T12:04:06;6.47;;;2.63;;
31798;SDS011;18374;51.136;3.502;2024-01-25T12:06:35;5.57;;;2.47;;
31798;SDS011;18374;51.136;3.502;2024-01-25T12:09:10;5.53;;;2.65;;
31798;SDS011;18374;51.136;3.502;2024-01-25T12:11:40;16.65;;;2.72;;
31798;SDS011;18374;51.136;3.502;2024-01-25T12:14:09;11.75;;;3.22;;
31798;SDS011;18374;51.136;3.502;2024-01-25T12:16:37;7.88;;;2.88;;
31798;SDS011;18374;51.136;3.502;2024-01-25T12:19:06;6.50;;;2.95;;
31798;SDS011;18374;51.136;3.502;2024-01-25T12:21:34;6.28;;;3.03;;
31798;SDS011;18374;51.136;3.502;2024-01-25T12:24:03;6.93;;;3.25;;
31798;SDS011;18374;51.136;3.502;2024-01-25T12:26:35;4.28;;;3.10;;
31798;SDS011;18374;51.136;3.502;2024-01-25T12:29:03;7.30;;;2.83;;
31798;SDS011;18374;51.136;3.502;2024-01-25T12:31:32;7.35;;;2.83;;
31798;SDS011;18374;51.136;3.502;2024-01-25T12:34:00;8.77;;;3.60;;
31798;SDS011;18374;51.136;3.502;2024-01-25T12:36:29;8.82;;;3.28;;
31798;SDS011;18374;51.136;3.502;2024-01-25T12:38:57;9.13;;;3.75;;
31798;SDS011;18374;51.136;3.502;2024-01-25T12:41:28;4.88;;;2.95;;
31798;SDS011;18374;51.136;3.502;2024-01-25T12:43:57;5.60;;;3.33;;
31798;SDS011;18374;51.136;3.502;2024-01-25T12:46:26;4.43;;;3.13;;
31798;SDS011;18374;51.136;3.502;2024-01-25T12:48:54;6.72;;;3.15;;
31798;SDS011;18374;51.136;3.502;2024-01-25T12:51:26;11.75;;;3.35;;
31798;SDS011;18374;51.136;3.502;2024-01-25T12:53:54;6.82;;;4.57;;
31798;SDS011;18374;51.136;3.502;2024-01-25T12:56:22;6.40;;;3.72;;
31798;SDS011;18374;51.136;3.502;2024-01-25T12:58:50;7.35;;;3.67;;
31798;SDS011;18374;51.136;3.502;2024-01-25T13:01:18;7.32;;;3.45;;
31798;SDS011;18374;51.136;3.502;2024-01-25T13:03:48;11.93;;;4.07;;
31798;SDS011;18374;51.136;3.502;2024-01-25T13:06:16;4.80;;;3.03;;
31798;SDS011;18374;51.136;3.502;2024-01-25T13:08:44;5.35;;;3.55;;
31798;SDS011;18374;51.136;3.502;2024-01-25T13:11:12;5.25;;;3.15;;
31798;SDS011;18374;51.136;3.502;2024-01-25T13:13:40;6.38;;;3.50;;
31798;SDS011;18374;51.136;3.502;2024-01-25T13:16:08;7.60;;;4.07;;
31798;SDS011;18374;51.136;3.502;2024-01-25T13:18:36;8.10;;;3.70;;
31798;SDS011;18374;51.136;3.502;2024-01-25T13:21:05;7.28;;;3.70;;
31798;SDS011;18374;51.136;3.502;2024-01-25T13:23:33;5.43;;;4.00;;
31798;SDS011;18374;51.136;3.502;2024-01-25T13:26:01;7.68;;;3.65;;
31798;SDS011;18374;51.136;3.502;2024-01-25T13:28:29;7.15;;;4.25;;
31798;SDS011;18374;51.136;3.502;2024-01-25T13:30:57;11.20;;;4.28;;
31798;SDS011;18374;51.136;3.502;2024-01-25T13:33:26;7.38;;;4.28;;
31798;SDS011;18374;51.136;3.502;2024-01-25T13:35:55;9.90;;;5.47;;
31798;SDS011;18374;51.136;3.502;2024-01-25T13:38:23;6.68;;;4.70;;
31798;SDS011;18374;51.136;3.502;2024-01-25T13:40:51;10.38;;;5.40;;
31798;SDS011;18374;51.136;3.502;2024-01-25T13:43:19;10.43;;;5.50;;
31798;SDS011;18374;51.136;3.502;2024-01-25T13:45:47;8.55;;;5.35;;
31798;SDS011;18374;51.136;3.502;2024-01-25T13:48:15;13.07;;;5.47;;
31798;SDS011;18374;51.136;3.502;2024-01-25T13:50:45;13.13;;;6.45;;
31798;SDS011;18374;51.136;3.502;2024-01-25T13:53:13;10.20;;;6.63;;
31798;SDS011;18374;51.136;3.502;2024-01-25T13:55:40;16.63;;;7.55;;
31798;SDS011;18374;51.136;3.502;2024-01-25T13:58:09;16.90;;;6.63;;
31798;SDS011;18374;51.136;3.502;2024-01-25T14:00:37;21.35;;;6.38;;
31798;SDS011;18374;51.136;3.502;2024-01-25T14:03:05;10.45;;;6.28;;
31798;SDS011;18374;51.136;3.502;2024-01-25T14:05:33;10.10;;;5.82;;
31798;SDS011;18374;51.136;3.502;2024-01-25T14:08:02;20.27;;;7.82;;
31798;SDS011;18374;51.136;3.502;2024-01-25T14:10:30;17.55;;;7.85;;
31798;SDS011;18374;51.136;3.502;2024-01-25T14:13:01;13.05;;;7.22;;
31798;SDS011;18374;51.136;3.502;2024-01-25T14:15:30;17.40;;;8.38;;
31798;SDS011;18374;51.136;3.502;2024-01-25T14:17:59;25.02;;;6.53;;
31798;SDS011;18374;51.136;3.502;2024-01-25T14:20:27;11.90;;;6.70;;
31798;SDS011;18374;51.136;3.502;2024-01-25T14:22:55;12.80;;;6.50;;
31798;SDS011;18374;51.136;3.502;2024-01-25T14:25:23;15.75;;;7.03;;
31798;SDS011;18374;51.136;3.502;2024-01-25T14:27:51;13.52;;;5.82;;
31798;SDS011;18374;51.136;3.502;2024-01-25T14:30:23;11.15;;;7.18;;
31798;SDS011;18374;51.136;3.502;2024-01-25T14:32:51;10.65;;;6.72;;
31798;SDS011;18374;51.136;3.502;2024-01-25T14:35:21;12.75;;;6.60;;
31798;SDS011;18374;51.136;3.502;2024-01-25T14:37:55;21.23;;;8.43;;
31798;SDS011;18374;51.136;3.502;2024-01-25T14:40:24;18.02;;;7.55;;
31798;SDS011;18374;51.136;3.502;2024-01-25T14:43:12;19.63;;;7.22;;
31798;SDS011;18374;51.136;3.502;2024-01-25T14:45:40;15.15;;;6.60;;
31798;SDS011;18374;51.136;3.502;2024-01-25T14:48:09;12.77;;;6.57;;
31798;SDS011;18374;51.136;3.502;2024-01-25T14:50:38;16.60;;;7.38;;
31798;SDS011;18374;51.136;3.502;2024-01-25T14:53:06;13.00;;;6.07;;
31798;SDS011;18374;51.136;3.502;2024-01-25T14:55:34;17.10;;;6.70;;
31798;SDS011;18374;51.136;3.502;2024-01-25T14:58:04;12.35;;;6.88;;